Time;durP1;ratioP1;P1;durP2;ratioP2;P2;SDS_P1;SDS_P2;PMS_P1;PMS_P2;Temp;Humidity;BMP_temperature;BMP_pressure;BME280_temperature;BME280_humidity;BME280_pressure;Samples;Min_cycle;Max_cycle;Signal;HPM_P1;HPM_P2
2022/10/19 00:02:13;;;;;;;;;;;14.00;99.90;;;;;;5071763;28;20003;-50
2022/10/19 00:04:40;;;;;;;;;;;14.10;99.90;;;;;;5071275;28;19990;-50
2022/10/19 00:07:07;;;;;;;;;;;14.10;99.90;;;;;;5070441;28;19966;-53
2022/10/19 00:09:33;;;;;;;;;;;14.00;99.90;;;;;;5059607;28;20555;-53
2022/10/19 00:12:00;;;;;;;;;;;14.00;99.90;;;;;;5060847;28;19967;-53
2022/10/19 00:14:27;;;;;;;;;;;14.00;99.90;;;;;;5065883;28;20362;-53
2022/10/19 00:16:54;;;;;;;;;;;14.10;99.90;;;;;;5071595;28;19963;-50
2022/10/19 00:19:22;;;;;;;;;;;14.00;99.90;;;;;;5070902;28;19964;-53
2022/10/19 00:21:49;;;;;;;;;;;14.00;99.90;;;;;;5072163;28;20005;-54
2022/10/19 00:24:21;;;;;;;;;;;14.10;99.90;;;;;;5069439;28;19920;-52
2022/10/19 00:26:47;;;;;;;;;;;14.10;99.90;;;;;;5069753;28;20316;-53
2022/10/19 00:29:15;;;;;;;;;;;14.00;99.90;;;;;;5068116;28;19950;-51
2022/10/19 00:31:41;;;;;;;;;;;14.00;99.90;;;;;;5059078;28;19921;-52
2022/10/19 00:34:08;;;;;;;;;;;14.00;99.90;;;;;;5053000;28;19960;-53
2022/10/19 00:36:36;;;;;;;;;;;14.00;99.90;;;;;;5051003;28;19928;-53
2022/10/19 00:39:04;;;;;;;;;;;14.00;99.90;;;;;;5064182;28;19921;-51
2022/10/19 00:48:26;;;;;;;;;;;14.00;99.90;;;;;;5103479;27;19920;-47
2022/10/19 00:50:54;;;;;;;;;;;14.00;99.90;;;;;;5096783;28;19923;-47
2022/10/19 00:53:22;;;;;;;;;;;13.90;99.90;;;;;;5109176;28;20019;-47
2022/10/19 00:55:49;;;;;;;;;;;13.90;99.90;;;;;;5110284;27;20388;-47
2022/10/19 00:58:15;;;;;;;;;;;14.00;99.90;;;;;;5115096;27;20014;-47
2022/10/19 01:00:42;;;;;;;;;;;14.00;99.90;;;;;;5114234;28;19920;-48
2022/10/19 01:03:10;;;;;;;;;;;14.00;99.90;;;;;;5115830;27;19928;-48
2022/10/19 01:05:37;;;;;;;;;;;14.00;99.90;;;;;;5111179;28;19920;-47
2022/10/19 01:08:04;;;;;;;;;;;14.00;99.90;;;;;;5111146;28;20384;-49
2022/10/19 01:10:34;;;;;;;;;;;13.90;99.90;;;;;;5111747;28;20281;-47
2022/10/19 01:13:20;;;;;;;;;;;14.00;99.90;;;;;;5112590;28;19981;-47
2022/10/19 01:15:47;;;;;;;;;;;14.00;99.90;;;;;;5105603;28;19951;-47
2022/10/19 01:18:20;;;;;;;;;;;13.90;99.90;;;;;;5111908;28;19927;-48
2022/10/19 01:20:49;;;;;;;;;;;13.90;99.90;;;;;;5111447;28;19928;-48
2022/10/19 01:23:16;;;;;;;;;;;13.90;99.90;;;;;;5111749;28;19920;-47
2022/10/19 01:26:07;;;;;;;;;;;13.90;99.90;;;;;;5110819;28;20403;-47
2022/10/19 01:28:52;;;;;;;;;;;13.90;99.90;;;;;;5111606;28;20573;-47
2022/10/19 01:31:26;;;;;;;;;;;13.90;99.90;;;;;;5110392;28;20018;-47
2022/10/19 01:33:53;;;;;;;;;;;13.90;99.90;;;;;;5111770;28;19985;-47
2022/10/19 01:36:23;;;;;;;;;;;13.90;99.90;;;;;;5112505;28;20014;-48
2022/10/19 01:38:58;;;;;;;;;;;13.90;99.90;;;;;;5111774;28;20017;-47
2022/10/19 01:41:25;;;;;;;;;;;13.90;99.90;;;;;;5111653;28;19962;-48
2022/10/19 01:44:12;;;;;;;;;;;13.80;99.90;;;;;;5112929;28;20649;-47
2022/10/19 01:46:40;;;;;;;;;;;13.90;99.90;;;;;;5108690;28;19945;-47
2022/10/19 01:49:27;;;;;;;;;;;13.80;99.90;;;;;;5112588;28;19923;-47
2022/10/19 01:51:56;;;;;;;;;;;13.90;99.90;;;;;;5110190;28;20449;-49
2022/10/19 01:54:25;;;;;;;;;;;13.90;99.90;;;;;;5111683;28;20272;-47
2022/10/19 01:56:52;;;;;;;;;;;13.90;99.90;;;;;;5112747;28;20018;-47
2022/10/19 01:59:20;;;;;;;;;;;13.90;99.90;;;;;;5115547;28;19924;-47
2022/10/19 02:01:47;;;;;;;;;;;14.00;99.90;;;;;;5114879;28;19958;-48
2022/10/19 02:04:16;;;;;;;;;;;13.90;99.90;;;;;;5115153;28;19966;-48
2022/10/19 02:06:43;;;;;;;;;;;13.90;99.90;;;;;;5117077;27;19919;-48
2022/10/19 02:09:16;;;;;;;;;;;13.90;99.90;;;;;;5115244;28;20022;-49
2022/10/19 02:11:55;;;;;;;;;;;13.80;99.90;;;;;;5115244;28;19951;-47
2022/10/19 02:14:26;;;;;;;;;;;13.80;99.90;;;;;;5113986;27;20423;-47
2022/10/19 02:17:04;;;;;;;;;;;13.80;99.90;;;;;;5116718;27;19947;-47
2022/10/19 02:19:31;;;;;;;;;;;13.70;99.90;;;;;;5114596;28;19920;-47
2022/10/19 02:21:58;;;;;;;;;;;13.70;99.90;;;;;;5120342;27;19981;-48
2022/10/19 02:24:25;;;;;;;;;;;13.70;99.90;;;;;;5113828;28;20395;-48
2022/10/19 02:26:52;;;;;;;;;;;13.70;99.90;;;;;;5113875;28;20475;-47
2022/10/19 02:29:19;;;;;;;;;;;13.70;99.90;;;;;;5114416;28;20011;-48
2022/10/19 02:31:45;;;;;;;;;;;13.70;99.90;;;;;;5114362;27;19974;-47
2022/10/19 02:34:12;;;;;;;;;;;13.70;99.90;;;;;;5114138;28;20002;-47
2022/10/19 02:36:39;;;;;;;;;;;13.70;99.90;;;;;;5114820;28;20373;-47
2022/10/19 02:39:06;;;;;;;;;;;13.70;99.90;;;;;;5114772;28;20391;-47
2022/10/19 02:41:35;;;;;;;;;;;13.70;99.90;;;;;;5118832;27;20443;-47
2022/10/19 02:44:18;;;;;;;;;;;13.70;99.90;;;;;;5114409;28;20000;-47
2022/10/19 02:46:48;;;;;;;;;;;13.70;99.90;;;;;;5114776;27;20011;-48
2022/10/19 02:49:15;;;;;;;;;;;13.70;99.90;;;;;;5113887;28;19963;-47
2022/10/19 02:51:58;;;;;;;;;;;13.70;99.90;;;;;;5114230;28;19963;-48
2022/10/19 02:54:26;;;;;;;;;;;13.60;99.90;;;;;;5112708;27;19923;-48
2022/10/19 02:56:52;;;;;;;;;;;13.60;99.90;;;;;;5115812;27;19919;-47
2022/10/19 02:59:19;;;;;;;;;;;13.60;99.90;;;;;;5114229;28;19966;-46
2022/10/19 03:01:46;;;;;;;;;;;13.60;99.90;;;;;;5112747;28;20010;-47
2022/10/19 03:04:12;;;;;;;;;;;13.60;99.90;;;;;;5114534;27;20426;-47
2022/10/19 03:06:39;;;;;;;;;;;13.60;99.90;;;;;;5114137;28;19920;-47
2022/10/19 03:09:05;;;;;;;;;;;13.60;99.90;;;;;;5113496;28;19919;-47
2022/10/19 03:11:32;;;;;;;;;;;13.60;99.90;;;;;;5113724;28;19981;-47
2022/10/19 03:13:59;;;;;;;;;;;13.60;99.90;;;;;;5113760;28;19951;-47
2022/10/19 03:16:25;;;;;;;;;;;13.60;99.90;;;;;;5128954;27;20292;-47
2022/10/19 03:18:53;;;;;;;;;;;13.60;99.90;;;;;;5113143;28;19945;-49
2022/10/19 03:21:19;;;;;;;;;;;13.70;99.90;;;;;;5114439;27;20380;-49
2022/10/19 03:23:46;;;;;;;;;;;13.60;99.90;;;;;;5113067;28;20404;-47
2022/10/19 03:26:14;;;;;;;;;;;13.60;99.90;;;;;;5113713;28;20390;-47
2022/10/19 03:28:40;;;;;;;;;;;13.60;99.90;;;;;;5113924;28;19928;-47
2022/10/19 03:31:07;;;;;;;;;;;13.60;99.90;;;;;;5117120;27;19973;-47
2022/10/19 03:33:34;;;;;;;;;;;13.60;99.90;;;;;;5112433;27;19967;-46
2022/10/19 03:36:21;;;;;;;;;;;13.50;99.90;;;;;;5113237;28;20022;-49
2022/10/19 03:38:51;;;;;;;;;;;13.50;99.90;;;;;;5112355;28;19920;-49
2022/10/19 03:41:18;;;;;;;;;;;13.50;99.90;;;;;;5113158;28;19951;-49
2022/10/19 03:43:45;;;;;;;;;;;13.50;99.90;;;;;;5118778;27;20395;-49
2022/10/19 03:46:12;;;;;;;;;;;13.50;99.90;;;;;;5112989;28;19920;-49
2022/10/19 03:48:39;;;;;;;;;;;13.50;99.90;;;;;;5107392;28;19924;-50
2022/10/19 03:51:07;;;;;;;;;;;13.50;99.90;;;;;;5111588;28;20019;-50
2022/10/19 03:53:34;;;;;;;;;;;13.50;99.90;;;;;;5111916;28;19970;-48
2022/10/19 03:56:02;;;;;;;;;;;13.50;99.90;;;;;;5112847;27;20672;-49
2022/10/19 03:58:29;;;;;;;;;;;13.50;99.90;;;;;;5112644;27;20467;-49
2022/10/19 04:00:56;;;;;;;;;;;13.50;99.90;;;;;;5112344;28;20015;-51
2022/10/19 04:03:23;;;;;;;;;;;13.40;99.90;;;;;;5111597;28;19919;-49
2022/10/19 04:05:50;;;;;;;;;;;13.40;99.90;;;;;;5112251;28;20615;-49
2022/10/19 04:08:17;;;;;;;;;;;13.40;99.90;;;;;;5111773;28;19973;-50
2022/10/19 04:10:44;;;;;;;;;;;13.40;99.90;;;;;;5112461;28;19919;-49
2022/10/19 04:13:10;;;;;;;;;;;13.40;99.90;;;;;;5111961;28;20353;-49
2022/10/19 04:15:37;;;;;;;;;;;13.40;99.90;;;;;;5099144;28;19923;-51
2022/10/19 04:18:04;;;;;;;;;;;13.40;99.90;;;;;;5112529;28;19920;-50
2022/10/19 04:20:30;;;;;;;;;;;13.40;99.90;;;;;;5112233;27;20002;-49
2022/10/19 04:22:57;;;;;;;;;;;13.40;99.90;;;;;;5112353;28;19947;-49
2022/10/19 04:25:23;;;;;;;;;;;13.50;99.90;;;;;;5111507;28;19974;-48
2022/10/19 04:27:50;;;;;;;;;;;13.40;99.90;;;;;;5092503;28;20393;-49
2022/10/19 04:30:17;;;;;;;;;;;13.40;99.90;;;;;;5109062;28;19920;-49
2022/10/19 04:32:43;;;;;;;;;;;13.40;99.90;;;;;;5112630;28;19966;-48
2022/10/19 04:35:10;;;;;;;;;;;13.40;99.90;;;;;;5112015;28;20406;-49
2022/10/19 04:37:36;;;;;;;;;;;13.40;99.90;;;;;;5107074;28;19959;-49
2022/10/19 04:40:04;;;;;;;;;;;13.40;99.90;;;;;;5108516;28;19963;-50
2022/10/19 04:42:31;;;;;;;;;;;13.40;99.90;;;;;;5112220;28;20326;-50
2022/10/19 04:44:58;;;;;;;;;;;13.40;99.90;;;;;;5116822;27;20606;-49
2022/10/19 04:47:24;;;;;;;;;;;13.40;99.90;;;;;;5111772;27;19958;-49
2022/10/19 04:49:51;;;;;;;;;;;13.40;99.90;;;;;;5111835;28;20014;-50
2022/10/19 04:52:17;;;;;;;;;;;13.30;99.90;;;;;;5111702;28;20118;-49
2022/10/19 04:54:44;;;;;;;;;;;13.40;99.90;;;;;;5111729;28;20331;-49
2022/10/19 04:57:11;;;;;;;;;;;13.40;99.90;;;;;;5108326;28;19968;-47
2022/10/19 04:59:38;;;;;;;;;;;13.40;99.90;;;;;;5110968;28;19920;-51
2022/10/19 05:02:04;;;;;;;;;;;13.40;99.90;;;;;;5110877;27;19955;-51
2022/10/19 05:04:31;;;;;;;;;;;13.40;99.90;;;;;;5110944;28;20243;-48
2022/10/19 05:06:58;;;;;;;;;;;13.40;99.90;;;;;;5109916;28;20384;-50
2022/10/19 05:09:24;;;;;;;;;;;13.40;99.90;;;;;;5111145;28;19924;-49
2022/10/19 05:11:51;;;;;;;;;;;13.40;99.90;;;;;;5111299;28;19919;-49
2022/10/19 05:14:18;;;;;;;;;;;13.40;99.90;;;;;;5102326;28;20388;-48
2022/10/19 05:16:44;;;;;;;;;;;13.40;99.90;;;;;;5109295;28;19920;-51
2022/10/19 05:19:12;;;;;;;;;;;13.40;99.90;;;;;;5111185;28;19927;-51
2022/10/19 05:21:38;;;;;;;;;;;13.40;99.90;;;;;;5111808;28;19924;-55
2022/10/19 05:24:05;;;;;;;;;;;13.40;99.90;;;;;;5095149;28;19927;-51
2022/10/19 05:26:32;;;;;;;;;;;13.30;99.90;;;;;;5110432;28;19926;-54
2022/10/19 05:29:01;;;;;;;;;;;13.30;99.90;;;;;;5110058;28;19919;-49
2022/10/19 05:31:29;;;;;;;;;;;13.30;99.90;;;;;;5113533;28;19920;-48
2022/10/19 05:33:56;;;;;;;;;;;13.30;99.90;;;;;;5113168;27;19942;-48
2022/10/19 05:36:27;;;;;;;;;;;13.30;99.90;;;;;;5115740;28;19920;-48
2022/10/19 05:38:54;;;;;;;;;;;13.30;99.90;;;;;;5113067;28;20451;-48
2022/10/19 05:41:22;;;;;;;;;;;13.30;99.90;;;;;;5119735;27;19955;-51
2022/10/19 05:43:53;;;;;;;;;;;13.30;99.90;;;;;;5107820;28;19919;-48
2022/10/19 05:46:19;;;;;;;;;;;13.30;99.90;;;;;;5115160;28;19973;-49
2022/10/19 05:48:46;;;;;;;;;;;13.30;99.90;;;;;;5115442;28;19976;-51
2022/10/19 05:51:14;;;;;;;;;;;13.30;99.90;;;;;;5115868;28;20006;-49
2022/10/19 05:53:40;;;;;;;;;;;13.30;99.90;;;;;;5116342;27;20463;-48
2022/10/19 05:56:08;;;;;;;;;;;13.30;99.90;;;;;;5116398;27;19923;-48
2022/10/19 05:58:35;;;;;;;;;;;13.30;99.90;;;;;;5113526;27;20023;-47
2022/10/19 06:01:01;;;;;;;;;;;13.30;99.90;;;;;;5119508;27;19958;-48
2022/10/19 06:03:29;;;;;;;;;;;13.40;99.90;;;;;;5114385;28;20391;-48
2022/10/19 06:05:56;;;;;;;;;;;13.30;99.90;;;;;;5115462;28;20372;-47
2022/10/19 06:08:24;;;;;;;;;;;13.30;99.90;;;;;;5115557;27;19969;-47
2022/10/19 06:10:51;;;;;;;;;;;13.30;99.90;;;;;;5115186;28;19955;-47
2022/10/19 06:13:18;;;;;;;;;;;13.30;99.90;;;;;;5114045;28;19920;-49
2022/10/19 06:15:48;;;;;;;;;;;13.30;99.90;;;;;;5116527;27;19972;-49
2022/10/19 06:18:15;;;;;;;;;;;13.20;99.90;;;;;;5114805;28;19966;-48
2022/10/19 06:20:41;;;;;;;;;;;13.20;99.90;;;;;;5117335;27;19958;-48
2022/10/19 06:23:08;;;;;;;;;;;13.20;99.90;;;;;;5114819;27;19973;-48
2022/10/19 06:25:35;;;;;;;;;;;13.20;99.90;;;;;;5111042;27;20351;-47
2022/10/19 06:28:02;;;;;;;;;;;13.20;99.90;;;;;;5114394;28;19955;-51
2022/10/19 06:30:28;;;;;;;;;;;13.30;99.90;;;;;;5115520;27;20455;-48
2022/10/19 06:32:57;;;;;;;;;;;13.30;99.90;;;;;;5112303;28;20004;-47
2022/10/19 06:35:23;;;;;;;;;;;13.40;99.90;;;;;;5113995;28;19923;-48
2022/10/19 06:37:50;;;;;;;;;;;13.40;99.90;;;;;;5114534;28;19971;-48
2022/10/19 06:40:17;;;;;;;;;;;13.40;99.90;;;;;;5113843;27;19930;-48
2022/10/19 06:42:43;;;;;;;;;;;13.40;99.90;;;;;;5105783;22;19927;-47
2022/10/19 06:45:10;;;;;;;;;;;13.50;99.90;;;;;;5076557;28;19990;-48
2022/10/19 06:47:36;;;;;;;;;;;13.40;99.90;;;;;;5085524;28;19959;-48
2022/10/19 06:50:04;;;;;;;;;;;13.50;99.90;;;;;;5080136;28;20405;-47
2022/10/19 06:52:31;;;;;;;;;;;13.50;99.90;;;;;;5075843;28;20347;-48
2022/10/19 06:54:58;;;;;;;;;;;13.50;99.90;;;;;;5061155;28;19925;-48
2022/10/19 06:57:25;;;;;;;;;;;13.50;99.90;;;;;;5045198;28;20343;-48
2022/10/19 06:59:52;;;;;;;;;;;13.40;99.90;;;;;;5064402;28;19924;-49
2022/10/19 07:02:19;;;;;;;;;;;13.40;99.90;;;;;;5055850;28;19944;-48
2022/10/19 07:04:46;;;;;;;;;;;13.40;99.90;;;;;;5056475;28;19956;-49
2022/10/19 07:07:12;;;;;;;;;;;13.20;99.90;;;;;;5053513;28;19924;-48
2022/10/19 07:09:39;;;;;;;;;;;13.20;99.90;;;;;;5053781;28;20345;-47
2022/10/19 07:12:07;;;;;;;;;;;13.20;99.90;;;;;;5061749;28;19950;-48
2022/10/19 07:14:37;;;;;;;;;;;13.20;99.90;;;;;;5061167;28;20047;-48
2022/10/19 07:17:05;;;;;;;;;;;13.10;99.90;;;;;;5053612;28;19925;-47
2022/10/19 07:19:32;;;;;;;;;;;13.10;99.90;;;;;;5053878;28;19920;-50
2022/10/19 07:21:58;;;;;;;;;;;13.20;99.90;;;;;;5053067;28;19983;-47
2022/10/19 07:24:25;;;;;;;;;;;13.30;99.90;;;;;;5052674;28;19924;-48
2022/10/19 07:26:51;;;;;;;;;;;13.40;99.90;;;;;;5059355;28;19967;-52
2022/10/19 07:29:18;;;;;;;;;;;13.40;99.90;;;;;;5054166;28;20027;-48
2022/10/19 07:31:45;;;;;;;;;;;13.40;99.90;;;;;;5061113;28;19974;-48
2022/10/19 07:34:12;;;;;;;;;;;13.30;99.90;;;;;;5062886;28;20605;-48
2022/10/19 07:36:43;;;;;;;;;;;13.40;99.90;;;;;;5055784;28;20384;-50
2022/10/19 07:39:10;;;;;;;;;;;13.50;99.90;;;;;;5061407;28;20377;-50
2022/10/19 07:41:37;;;;;;;;;;;13.60;99.90;;;;;;5043759;28;19958;-48
2022/10/19 07:44:04;;;;;;;;;;;13.70;99.90;;;;;;5060390;28;19921;-48
2022/10/19 07:46:32;;;;;;;;;;;13.80;99.90;;;;;;5043024;28;19950;-47
2022/10/19 07:48:59;;;;;;;;;;;13.90;99.90;;;;;;5057461;28;19955;-48
2022/10/19 07:51:26;;;;;;;;;;;14.10;99.90;;;;;;5054284;28;19967;-48
2022/10/19 07:53:58;;;;;;;;;;;14.10;99.90;;;;;;5058644;28;19921;-48
2022/10/19 07:56:26;;;;;;;;;;;14.00;99.90;;;;;;5061818;28;19925;-48
2022/10/19 07:58:54;;;;;;;;;;;14.00;99.90;;;;;;5061326;28;20016;-49
2022/10/19 08:01:22;;;;;;;;;;;14.10;99.90;;;;;;5061693;28;19966;-49
2022/10/19 08:03:51;;;;;;;;;;;14.30;99.90;;;;;;5059879;28;19920;-49
2022/10/19 08:06:37;;;;;;;;;;;14.30;99.90;;;;;;5060436;28;19978;-48
2022/10/19 08:09:04;;;;;;;;;;;14.50;99.90;;;;;;5061810;28;19924;-48
2022/10/19 08:11:32;;;;;;;;;;;14.40;99.90;;;;;;5061078;28;19946;-48
2022/10/19 08:14:01;;;;;;;;;;;14.60;99.90;;;;;;5062245;28;19966;-48
2022/10/19 08:16:31;;;;;;;;;;;14.70;99.90;;;;;;5062743;28;20332;-50
2022/10/19 08:19:08;;;;;;;;;;;14.80;99.90;;;;;;5052029;28;19921;-48
2022/10/19 08:21:36;;;;;;;;;;;14.80;99.90;;;;;;5052077;28;19963;-49
2022/10/19 08:27:14;;;;;;;;;;;15.00;99.90;;;;;;5052334;28;19920;-48
2022/10/19 08:29:41;;;;;;;;;;;15.00;99.90;;;;;;5062223;28;19920;-48
2022/10/19 08:32:07;;;;;;;;;;;15.00;99.90;;;;;;5050849;28;20492;-48
2022/10/19 08:34:34;;;;;;;;;;;15.00;99.90;;;;;;5063060;28;20480;-48
2022/10/19 08:37:02;;;;;;;;;;;15.20;99.90;;;;;;5071405;28;20338;-49
2022/10/19 08:39:45;;;;;;;;;;;15.30;99.90;;;;;;5071484;28;19921;-49
2022/10/19 08:42:15;;;;;;;;;;;15.50;99.90;;;;;;5064238;28;19951;-48
2022/10/19 08:45:00;;;;;;;;;;;15.40;99.90;;;;;;5051306;28;19963;-51
2022/10/19 08:47:47;;;;;;;;;;;15.50;99.90;;;;;;5051653;28;19925;-49
2022/10/19 08:50:18;;;;;;;;;;;15.60;99.90;;;;;;5061058;28;20384;-48
2022/10/19 08:52:50;;;;;;;;;;;15.70;99.90;;;;;;5065390;28;19971;-49
2022/10/19 08:55:21;;;;;;;;;;;15.60;99.90;;;;;;5071715;28;19962;-48
2022/10/19 08:58:07;;;;;;;;;;;15.80;99.90;;;;;;5070588;28;19959;-48
2022/10/19 09:00:42;;;;;;;;;;;15.90;99.90;;;;;;5063891;28;19974;-48
2022/10/19 09:03:17;;;;;;;;;;;15.90;99.90;;;;;;5071251;28;19920;-49
2022/10/19 09:06:07;;;;;;;;;;;16.00;99.90;;;;;;5068801;28;20379;-48
2022/10/19 09:08:35;;;;;;;;;;;16.20;99.90;;;;;;5063386;28;19924;-48
2022/10/19 09:11:02;;;;;;;;;;;16.20;99.90;;;;;;5071457;28;19927;-48
2022/10/19 09:13:45;;;;;;;;;;;16.20;99.90;;;;;;5071340;28;19956;-49
2022/10/19 09:16:30;;;;;;;;;;;16.30;99.90;;;;;;5058528;28;19967;-49
2022/10/19 09:18:57;;;;;;;;;;;16.30;99.90;;;;;;5051430;28;19971;-49
2022/10/19 09:21:27;;;;;;;;;;;16.30;99.90;;;;;;5051055;28;19921;-50
2022/10/19 09:24:18;;;;;;;;;;;16.20;99.90;;;;;;5050371;28;19927;-48
2022/10/19 09:26:52;;;;;;;;;;;16.10;99.90;;;;;;5051397;28;19934;-50
2022/10/19 09:29:21;;;;;;;;;;;16.00;99.90;;;;;;5050883;28;19966;-48
2022/10/19 09:31:50;;;;;;;;;;;16.00;99.90;;;;;;5041697;28;19959;-49
2022/10/19 09:34:16;;;;;;;;;;;15.90;99.90;;;;;;5070971;28;20424;-49
2022/10/19 09:36:45;;;;;;;;;;;16.00;99.90;;;;;;5070490;28;19978;-48
2022/10/19 09:39:17;;;;;;;;;;;16.30;99.90;;;;;;5071216;28;19924;-49
2022/10/19 09:41:45;;;;;;;;;;;16.50;99.90;;;;;;5064644;28;19948;-48
2022/10/19 09:44:12;;;;;;;;;;;16.80;99.90;;;;;;5068118;28;20008;-48
2022/10/19 09:46:44;;;;;;;;;;;17.00;99.90;;;;;;5070948;28;19920;-48
2022/10/19 09:49:15;;;;;;;;;;;17.10;99.90;;;;;;5070659;28;20335;-48
2022/10/19 09:51:49;;;;;;;;;;;17.20;99.90;;;;;;5057621;28;19921;-48
2022/10/19 09:54:29;;;;;;;;;;;17.20;99.90;;;;;;5058833;28;19974;-49
2022/10/19 09:56:56;;;;;;;;;;;17.30;99.90;;;;;;5050175;28;19966;-48
2022/10/19 09:59:26;;;;;;;;;;;17.30;99.90;;;;;;5050398;28;20015;-49
2022/10/19 10:02:16;;;;;;;;;;;17.20;99.90;;;;;;5050080;28;19952;-48
2022/10/19 10:05:01;;;;;;;;;;;17.20;99.90;;;;;;5051079;28;19921;-48
2022/10/19 10:07:32;;;;;;;;;;;17.20;99.90;;;;;;5052992;28;20405;-49
2022/10/19 10:09:59;;;;;;;;;;;17.30;99.90;;;;;;5055229;28;19970;-48
2022/10/19 10:12:26;;;;;;;;;;;17.30;99.90;;;;;;5070451;28;19966;-48
2022/10/19 10:14:55;;;;;;;;;;;17.30;99.90;;;;;;5071121;28;19974;-48
2022/10/19 10:17:26;;;;;;;;;;;17.30;99.90;;;;;;5071788;28;19960;-49
2022/10/19 10:19:56;;;;;;;;;;;17.40;99.90;;;;;;5066435;28;19970;-49
2022/10/19 10:22:27;;;;;;;;;;;17.40;99.90;;;;;;5074354;28;19970;-49
2022/10/19 10:24:55;;;;;;;;;;;17.50;99.90;;;;;;5047476;28;19920;-48
2022/10/19 10:27:33;;;;;;;;;;;17.60;99.90;;;;;;5074227;28;20014;-49
2022/10/19 10:30:04;;;;;;;;;;;17.70;99.90;;;;;;5074526;28;19920;-48
2022/10/19 10:32:31;;;;;;;;;;;17.90;99.90;;;;;;5074624;28;19931;-49
2022/10/19 10:35:03;;;;;;;;;;;18.10;99.90;;;;;;5073091;28;20154;-48
2022/10/19 10:37:35;;;;;;;;;;;18.20;99.90;;;;;;5065999;28;19924;-48
2022/10/19 10:40:03;;;;;;;;;;;18.20;99.90;;;;;;5074319;28;19927;-48
2022/10/19 10:42:35;;;;;;;;;;;17.90;99.90;;;;;;5070300;28;20419;-48
2022/10/19 10:45:03;;;;;;;;;;;17.80;99.90;;;;;;5069809;28;19924;-48
2022/10/19 10:47:30;;;;;;;;;;;17.60;99.90;;;;;;5056897;28;19924;-49
2022/10/19 10:50:02;;;;;;;;;;;17.50;99.90;;;;;;5059074;28;19974;-48
2022/10/19 10:52:32;;;;;;;;;;;17.60;99.90;;;;;;5070150;28;20356;-49
2022/10/19 10:55:08;;;;;;;;;;;17.60;99.90;;;;;;5065853;28;19920;-49
2022/10/19 10:57:40;;;;;;;;;;;17.80;99.90;;;;;;5057624;28;19967;-50
2022/10/19 11:00:10;;;;;;;;;;;17.90;99.90;;;;;;5053768;28;19960;-49
2022/10/19 11:02:39;;;;;;;;;;;18.10;99.90;;;;;;5053474;28;20741;-48
2022/10/19 11:05:10;;;;;;;;;;;18.20;99.90;;;;;;5069514;28;20011;-49
2022/10/19 11:07:40;;;;;;;;;;;18.30;99.90;;;;;;5073349;28;19943;-48
2022/10/19 11:10:15;;;;;;;;;;;18.40;99.90;;;;;;5072469;28;19963;-49
2022/10/19 11:12:45;;;;;;;;;;;18.50;99.90;;;;;;5067924;28;19928;-49
2022/10/19 11:15:11;;;;;;;;;;;18.70;99.90;;;;;;5070247;28;20426;-48
2022/10/19 11:17:40;;;;;;;;;;;19.00;99.90;;;;;;5073636;28;20019;-48
2022/10/19 11:20:09;;;;;;;;;;;19.30;99.90;;;;;;5071493;28;19920;-48
2022/10/19 11:22:41;;;;;;;;;;;19.30;99.90;;;;;;5064848;28;19946;-47
2022/10/19 11:25:17;;;;;;;;;;;19.50;99.90;;;;;;5072930;28;19970;-48
2022/10/19 11:27:47;;;;;;;;;;;19.60;99.90;;;;;;5072713;28;20015;-48
2022/10/19 11:30:15;;;;;;;;;;;19.60;99.90;;;;;;5069925;28;20389;-48
2022/10/19 11:32:54;;;;;;;;;;;19.60;99.90;;;;;;5072811;28;19921;-48
2022/10/19 11:35:24;;;;;;;;;;;19.50;99.90;;;;;;5072599;28;19974;-49
2022/10/19 11:38:03;;;;;;;;;;;19.30;99.90;;;;;;5071483;28;19967;-48
2022/10/19 11:40:54;;;;;;;;;;;19.20;99.90;;;;;;5053206;28;20319;-48
2022/10/19 11:43:59;;;;;;;;;;;19.00;99.90;;;;;;5052179;28;20020;-49
2022/10/19 11:46:47;;;;;;;;;;;18.80;99.90;;;;;;5056183;28;19978;-48
2022/10/19 11:49:14;;;;;;;;;;;18.90;99.90;;;;;;5053701;28;20028;-50
2022/10/19 11:51:40;;;;;;;;;;;18.90;99.90;;;;;;5052771;28;19976;-47
2022/10/19 11:54:17;;;;;;;;;;;18.80;99.90;;;;;;5052208;28;19920;-52
2022/10/19 11:56:48;;;;;;;;;;;18.70;99.90;;;;;;5057669;28;20449;-48
2022/10/19 11:59:35;;;;;;;;;;;18.70;99.90;;;;;;5064871;28;20403;-49
2022/10/19 12:02:04;;;;;;;;;;;18.50;99.90;;;;;;5072631;28;19960;-49
2022/10/19 12:04:37;;;;;;;;;;;18.50;99.90;;;;;;5065398;28;20011;-50
2022/10/19 12:07:19;;;;;;;;;;;18.40;99.90;;;;;;5072250;28;19952;-49
2022/10/19 12:10:04;;;;;;;;;;;18.50;99.90;;;;;;5072456;28;19948;-50
2022/10/19 12:12:32;;;;;;;;;;;18.70;99.90;;;;;;5072469;28;19920;-50
2022/10/19 12:15:02;;;;;;;;;;;18.60;99.90;;;;;;5063647;28;20035;-49
2022/10/19 12:17:31;;;;;;;;;;;18.60;99.90;;;;;;5042180;28;20361;-48
2022/10/19 12:20:01;;;;;;;;;;;18.60;99.90;;;;;;5052186;28;19969;-48
2022/10/19 12:22:29;;;;;;;;;;;18.60;99.90;;;;;;5052279;28;20335;-50
2022/10/19 12:24:57;;;;;;;;;;;18.50;99.90;;;;;;5063245;28;19920;-48
2022/10/19 12:27:37;;;;;;;;;;;18.30;99.90;;;;;;5072079;28;19921;-48
2022/10/19 12:30:04;;;;;;;;;;;18.30;99.90;;;;;;5060556;28;19921;-49
2022/10/19 12:32:35;;;;;;;;;;;18.10;99.90;;;;;;5063306;28;19959;-48
2022/10/19 12:35:38;;;;;;;;;;;18.10;99.90;;;;;;5071182;28;19955;-48
2022/10/19 12:38:16;;;;;;;;;;;18.10;99.90;;;;;;4970784;28;19971;-49
2022/10/19 12:40:48;;;;;;;;;;;18.10;99.90;;;;;;5058209;28;20022;-48
2022/10/19 12:46:30;;;;;;;;;;;18.30;99.90;;;;;;5127459;27;20104;-46
2022/10/19 12:49:15;;;;;;;;;;;18.40;99.90;;;;;;5131151;27;20377;-47
2022/10/19 12:51:45;;;;;;;;;;;18.50;99.90;;;;;;5121850;27;19959;-47
2022/10/19 12:54:12;;;;;;;;;;;18.60;99.90;;;;;;5111664;28;20352;-46
2022/10/19 12:56:45;;;;;;;;;;;18.60;99.90;;;;;;5110091;28;19966;-46
2022/10/19 12:59:23;;;;;;;;;;;18.50;99.90;;;;;;5112023;28;20431;-47
2022/10/19 13:01:50;;;;;;;;;;;18.40;99.90;;;;;;5107914;28;19962;-46
2022/10/19 13:04:19;;;;;;;;;;;18.20;99.90;;;;;;5101916;28;20422;-47
2022/10/19 13:06:50;;;;;;;;;;;18.10;99.90;;;;;;5111881;28;19920;-46
2022/10/19 13:09:22;;;;;;;;;;;18.10;99.90;;;;;;5112439;28;19920;-47
2022/10/19 13:12:08;;;;;;;;;;;18.10;99.90;;;;;;5111491;28;20340;-46
2022/10/19 13:14:50;;;;;;;;;;;18.10;99.90;;;;;;5103627;28;19923;-46
2022/10/19 13:17:36;;;;;;;;;;;18.00;99.90;;;;;;5112073;28;19955;-47
2022/10/19 13:20:12;;;;;;;;;;;17.90;99.90;;;;;;5107279;28;19920;-47
2022/10/19 13:22:58;;;;;;;;;;;17.70;99.90;;;;;;5104368;28;19926;-47
2022/10/19 13:25:26;;;;;;;;;;;17.70;99.90;;;;;;5111373;28;19958;-46
2022/10/19 13:28:00;;;;;;;;;;;17.60;99.90;;;;;;5102972;28;19919;-46
2022/10/19 13:30:40;;;;;;;;;;;17.50;99.90;;;;;;5111958;28;19956;-47
2022/10/19 13:33:23;;;;;;;;;;;17.50;99.90;;;;;;5111546;28;20383;-47
2022/10/19 13:35:59;;;;;;;;;;;17.40;99.90;;;;;;5100799;28;20406;-46
2022/10/19 13:38:46;;;;;;;;;;;17.20;99.90;;;;;;5110886;28;19954;-46
2022/10/19 13:41:26;;;;;;;;;;;17.10;99.90;;;;;;5111809;28;20336;-47
2022/10/19 13:44:01;;;;;;;;;;;17.10;99.90;;;;;;5111671;28;19962;-46
2022/10/19 13:46:28;;;;;;;;;;;17.10;99.90;;;;;;5102290;28;20445;-47
2022/10/19 13:49:03;;;;;;;;;;;17.10;99.90;;;;;;5100439;28;19920;-48
2022/10/19 13:51:39;;;;;;;;;;;17.00;99.90;;;;;;5111782;28;19965;-47
2022/10/19 13:54:18;;;;;;;;;;;17.00;99.90;;;;;;5115345;28;20308;-47
2022/10/19 13:56:53;;;;;;;;;;;17.00;99.90;;;;;;5110513;28;20376;-48
2022/10/19 13:59:31;;;;;;;;;;;16.90;99.90;;;;;;5113980;28;19962;-47
2022/10/19 14:01:57;;;;;;;;;;;16.80;99.90;;;;;;5115501;28;19951;-47
2022/10/19 14:04:32;;;;;;;;;;;16.90;99.90;;;;;;5111662;28;19924;-47
2022/10/19 14:07:06;;;;;;;;;;;17.00;99.90;;;;;;5115212;28;20372;-47
2022/10/19 14:09:42;;;;;;;;;;;17.10;99.90;;;;;;5114802;28;19970;-48
2022/10/19 14:12:16;;;;;;;;;;;17.20;99.90;;;;;;5111359;28;19989;-47
2022/10/19 14:14:43;;;;;;;;;;;17.40;99.90;;;;;;5115045;28;19973;-46
2022/10/19 14:17:13;;;;;;;;;;;17.60;99.90;;;;;;5115503;28;20334;-46
2022/10/19 14:19:41;;;;;;;;;;;17.80;99.90;;;;;;5111646;28;19970;-48
2022/10/19 14:22:18;;;;;;;;;;;18.00;99.90;;;;;;5111697;28;19959;-46
2022/10/19 14:24:45;;;;;;;;;;;18.00;99.90;;;;;;5114894;28;19981;-47
2022/10/19 14:27:17;;;;;;;;;;;18.10;99.90;;;;;;5115050;28;19970;-47
2022/10/19 14:29:47;;;;;;;;;;;18.10;99.90;;;;;;5105702;28;19946;-46
2022/10/19 14:32:15;;;;;;;;;;;18.00;99.90;;;;;;5114756;28;20404;-46
2022/10/19 14:34:43;;;;;;;;;;;17.90;99.90;;;;;;5114683;28;19923;-47
2022/10/19 14:37:17;;;;;;;;;;;17.80;99.90;;;;;;5114683;28;20448;-46
2022/10/19 14:39:57;;;;;;;;;;;17.80;99.90;;;;;;5112143;28;20348;-47
2022/10/19 14:42:23;;;;;;;;;;;17.60;99.90;;;;;;5114459;28;19919;-46
2022/10/19 14:44:50;;;;;;;;;;;17.60;99.90;;;;;;5114333;28;19965;-47
2022/10/19 14:47:16;;;;;;;;;;;17.60;99.90;;;;;;5111316;28;19919;-47
2022/10/19 14:49:43;;;;;;;;;;;17.60;99.90;;;;;;5114751;28;20009;-47